Time;durP1;ratioP1;P1;durP2;ratioP2;P2;SDS_P1;SDS_P2;PMS_P1;PMS_P2;Temp;Humidity;BMP_temperature;BMP_pressure;BME280_temperature;BME280_humidity;BME280_pressure;Samples;Min_cycle;Max_cycle;Signal;HPM_P1;HPM_P2
2022/09/09 00:02:17;;;;;;;6.17;3.45;;;;;;;;;;1699434;83;21041;-62
2022/09/09 00:04:44;;;;;;;5.58;3.55;;;;;;;;;;1698268;83;21123;-64
2022/09/09 00:07:18;;;;;;;7.60;3.90;;;;;;;;;;1709492;83;21045;-64
2022/09/09 00:09:44;;;;;;;;;;;;;;;;;;1717879;83;21112;-64
2022/09/09 00:12:12;;;;;;;6.35;3.30;;;;;;;;;;1699457;83;20414;-64
2022/09/09 00:14:43;;;;;;;8.30;3.70;;;;;;;;;;1719026;83;21006;-64
2022/09/09 00:17:14;;;;;;;6.53;3.90;;;;;;;;;;1693001;83;21604;-65
2022/09/09 00:19:43;;;;;;;5.40;3.40;;;;;;;;;;1657771;85;21106;-63
2022/09/09 00:22:17;;;;;;;8.63;3.67;;;;;;;;;;1648696;87;21081;-63
2022/09/09 00:24:44;;;;;;;7.37;3.87;;;;;;;;;;1664298;85;21122;-63
2022/09/09 00:27:17;;;;;;;6.53;3.30;;;;;;;;;;1635836;86;21603;-63
2022/09/09 00:29:48;;;;;;;6.55;3.92;;;;;;;;;;1665526;84;21013;-63
2022/09/09 00:32:16;;;;;;;5.20;3.27;;;;;;;;;;1666818;84;21026;-63
2022/09/09 00:34:45;;;;;;;6.95;3.67;;;;;;;;;;1663863;84;21073;-64
2022/09/09 00:37:11;;;;;;;8.90;3.75;;;;;;;;;;1669845;84;21049;-63
2022/09/09 00:39:39;;;;;;;5.50;2.95;;;;;;;;;;1661997;85;21073;-64
2022/09/09 00:42:16;;;;;;;6.37;3.20;;;;;;;;;;1658771;86;21040;-64
2022/09/09 00:44:50;;;;;;;6.40;3.33;;;;;;;;;;1646057;86;21092;-63
2022/09/09 00:47:33;;;;;;;5.33;3.70;;;;;;;;;;1655891;86;21043;-63
2022/09/09 00:50:17;;;;;;;6.95;3.45;;;;;;;;;;1669399;85;21060;-64
2022/09/09 00:52:55;;;;;;;5.72;3.50;;;;;;;;;;1713580;84;21575;-64
2022/09/09 00:55:22;;;;;;;4.05;2.85;;;;;;;;;;1712936;83;21037;-63
2022/09/09 00:57:50;;;;;;;6.20;3.50;;;;;;;;;;1687583;84;21484;-64
2022/09/09 01:00:22;;;;;;;6.53;3.50;;;;;;;;;;1705924;84;21025;-63
2022/09/09 01:05:47;;;;;;;5.55;3.10;;;;;;;;;;1699917;83;21615;-72
2022/09/09 01:08:30;;;;;;;6.12;3.42;;;;;;;;;;1694683;84;21050;-72
2022/09/09 01:10:57;;;;;;;7.03;3.65;;;;;;;;;;1700156;84;21040;-71
2022/09/09 01:13:33;;;;;;;6.35;3.20;;;;;;;;;;1730863;81;21088;-71
2022/09/09 01:15:59;;;;;;;5.65;3.30;;;;;;;;;;1708890;83;21163;-73
2022/09/09 01:18:27;;;;;;;5.08;3.25;;;;;;;;;;1649792;84;21050;-72
2022/09/09 01:21:14;;;;;;;6.22;3.27;;;;;;;;;;1700773;84;21851;-71
2022/09/09 01:23:42;;;;;;;5.78;3.65;;;;;;;;;;1698161;83;21081;-73
2022/09/09 01:26:18;;;;;;;5.75;3.12;;;;;;;;;;1649308;84;21164;-72
2022/09/09 01:28:48;;;;;;;5.58;3.47;;;;;;;;;;1700608;83;21074;-72
2022/09/09 01:31:17;;;;;;;5.92;3.40;;;;;;;;;;1731050;83;21048;-72
2022/09/09 01:33:45;;;;;;;5.60;3.40;;;;;;;;;;1731494;81;20989;-73
2022/09/09 01:36:20;;;;;;;6.10;3.67;;;;;;;;;;1704668;83;20982;-71
2022/09/09 01:38:48;;;;;;;7.47;3.47;;;;;;;;;;1700734;84;21072;-72
2022/09/09 01:42:27;;;;;;;5.17;3.22;;;;;;;;;;1791423;78;23379;-63
2022/09/09 01:44:55;;;;;;;8.23;3.25;;;;;;;;;;1758190;80;21111;-63
2022/09/09 01:47:21;;;;;;;5.92;3.40;;;;;;;;;;1761830;80;21438;-64
2022/09/09 01:49:55;;;;;;;4.85;3.25;;;;;;;;;;1749550;80;21123;-64
2022/09/09 01:52:23;;;;;;;5.65;3.20;;;;;;;;;;1760854;80;21040;-62
2022/09/09 01:54:49;;;;;;;4.65;2.92;;;;;;;;;;1758370;80;21048;-62
2022/09/09 01:57:33;;;;;;;6.67;3.20;;;;;;;;;;1761153;81;21041;-63
2022/09/09 02:00:09;;;;;;;5.58;3.22;;;;;;;;;;1761621;81;21008;-63
2022/09/09 02:02:43;;;;;;;6.90;3.00;;;;;;;;;;1750003;80;21056;-63
2022/09/09 02:05:13;;;;;;;5.22;3.25;;;;;;;;;;1741217;80;21053;-63
2022/09/09 02:07:41;;;;;;;5.62;3.30;;;;;;;;;;1722347;81;21041;-63
2022/09/09 02:10:11;;;;;;;6.58;3.67;;;;;;;;;;1720557;83;21540;-63
2022/09/09 02:12:40;;;;;;;7.20;3.37;;;;;;;;;;1740907;82;21528;-63
2022/09/09 02:15:09;;;;;;;6.45;3.17;;;;;;;;;;1753219;80;21052;-64
2022/09/09 02:17:37;;;;;;;6.55;3.45;;;;;;;;;;1751867;80;21544;-64
2022/09/09 02:20:07;;;;;;;5.08;3.42;;;;;;;;;;1752221;82;21512;-63
2022/09/09 02:22:39;;;;;;;4.65;3.17;;;;;;;;;;1718829;83;21615;-63
2022/09/09 02:25:07;;;;;;;8.33;3.87;;;;;;;;;;1745086;80;21053;-62
2022/09/09 02:27:35;;;;;;;6.42;3.33;;;;;;;;;;1723201;83;21025;-63
2022/09/09 02:30:02;;;;;;;5.30;3.22;;;;;;;;;;1723293;83;21033;-63
2022/09/09 02:32:33;;;;;;;6.03;3.60;;;;;;;;;;1724073;82;21068;-62
2022/09/09 02:35:04;;;;;;;5.40;3.50;;;;;;;;;;1739153;82;21587;-62
2022/09/09 02:37:33;;;;;;;5.60;3.30;;;;;;;;;;1753198;82;21116;-63
2022/09/09 02:39:59;;;;;;;5.25;3.30;;;;;;;;;;1753227;82;21009;-63
2022/09/09 02:42:25;;;;;;;4.35;3.25;;;;;;;;;;1723449;81;21073;-63
2022/09/09 02:44:52;;;;;;;5.78;3.30;;;;;;;;;;1723946;82;21057;-64
2022/09/09 02:47:23;;;;;;;6.50;3.72;;;;;;;;;;1741378;81;21084;-64
2022/09/09 02:49:55;;;;;;;7.87;3.52;;;;;;;;;;1736968;81;21493;-63
2022/09/09 02:52:39;;;;;;;6.47;3.58;;;;;;;;;;1723464;81;21029;-64
2022/09/09 02:55:07;;;;;;;5.60;3.55;;;;;;;;;;1738994;82;21005;-64
2022/09/09 02:57:34;;;;;;;7.97;3.67;;;;;;;;;;1739394;82;21028;-64
2022/09/09 03:00:02;;;;;;;7.65;3.40;;;;;;;;;;1739330;82;21596;-64
2022/09/09 03:02:30;;;;;;;6.72;3.33;;;;;;;;;;1739548;81;21033;-64
2022/09/09 03:04:57;;;;;;;4.92;3.20;;;;;;;;;;1738750;82;21054;-64
2022/09/09 03:07:23;;;;;;;6.22;3.30;;;;;;;;;;1739286;82;21093;-64
2022/09/09 03:09:54;;;;;;;7.33;3.20;;;;;;;;;;1739121;82;21353;-64
2022/09/09 03:12:20;;;;;;;5.45;3.30;;;;;;;;;;1687868;81;21132;-63
2022/09/09 03:14:46;;;;;;;5.90;3.37;;;;;;;;;;1686777;84;21096;-63
2022/09/09 03:17:13;;;;;;;4.58;3.22;;;;;;;;;;1686425;84;21021;-64
2022/09/09 03:19:41;;;;;;;4.92;3.35;;;;;;;;;;1636748;85;21063;-64
2022/09/09 03:22:09;;;;;;;5.65;3.60;;;;;;;;;;1647608;87;21558;-63
2022/09/09 03:24:36;;;;;;;5.30;3.02;;;;;;;;;;1636834;87;21107;-63
2022/09/09 03:27:04;;;;;;;6.12;3.47;;;;;;;;;;1687885;84;21076;-64
2022/09/09 03:29:30;;;;;;;4.87;3.20;;;;;;;;;;1687972;85;21061;-64
2022/09/09 03:31:57;;;;;;;6.00;3.30;;;;;;;;;;1687924;85;21481;-64
2022/09/09 03:34:24;;;;;;;5.25;3.35;;;;;;;;;;1687912;84;21069;-64
2022/09/09 03:36:50;;;;;;;5.95;3.40;;;;;;;;;;1687814;84;21037;-64
2022/09/09 03:39:17;;;;;;;5.28;3.30;;;;;;;;;;1688134;85;21080;-64
2022/09/09 03:41:46;;;;;;;5.22;3.20;;;;;;;;;;1687520;84;21073;-64
2022/09/09 03:44:11;;;;;;;5.25;3.02;;;;;;;;;;1688236;84;20978;-62
2022/09/09 03:46:40;;;;;;;5.22;3.37;;;;;;;;;;1687542;83;21512;-63
2022/09/09 03:49:06;;;;;;;4.78;2.92;;;;;;;;;;1687701;85;21619;-64
2022/09/09 03:51:36;;;;;;;5.22;3.58;;;;;;;;;;1687242;84;21094;-63
2022/09/09 03:54:04;;;;;;;4.90;2.92;;;;;;;;;;1687271;84;21064;-63
2022/09/09 03:56:31;;;;;;;5.65;3.10;;;;;;;;;;1687976;85;21084;-64
2022/09/09 03:58:58;;;;;;;5.15;2.92;;;;;;;;;;1687805;85;21060;-64
2022/09/09 04:01:25;;;;;;;5.78;3.33;;;;;;;;;;1673904;85;21041;-64
2022/09/09 04:03:52;;;;;;;6.50;3.42;;;;;;;;;;1685540;83;21112;-64
2022/09/09 04:06:20;;;;;;;5.80;3.08;;;;;;;;;;1715246;82;21060;-64
2022/09/09 04:08:51;;;;;;;5.65;3.30;;;;;;;;;;1716441;82;21083;-65
2022/09/09 04:11:19;;;;;;;5.05;3.27;;;;;;;;;;1714156;82;21065;-63
2022/09/09 04:13:46;;;;;;;7.25;3.15;;;;;;;;;;1713959;84;21089;-64
2022/09/09 04:16:14;;;;;;;4.50;2.92;;;;;;;;;;1713832;82;21060;-62
2022/09/09 04:18:42;;;;;;;4.53;2.80;;;;;;;;;;1705178;82;21099;-64
2022/09/09 04:21:09;;;;;;;4.83;3.05;;;;;;;;;;1698762;82;21069;-64
2022/09/09 04:23:36;;;;;;;5.35;3.35;;;;;;;;;;1712927;82;21010;-64
2022/09/09 04:26:02;;;;;;;6.97;2.87;;;;;;;;;;1714528;82;21994;-65
2022/09/09 04:28:29;;;;;;;5.53;3.37;;;;;;;;;;1712795;82;21053;-64
2022/09/09 04:30:56;;;;;;;5.53;3.62;;;;;;;;;;1713804;82;21513;-64
2022/09/09 04:33:26;;;;;;;7.33;3.50;;;;;;;;;;1714173;84;21002;-64
2022/09/09 04:35:54;;;;;;;8.10;3.40;;;;;;;;;;1712876;82;21045;-63
2022/09/09 04:38:22;;;;;;;11.25;3.45;;;;;;;;;;1713079;82;20985;-62
2022/09/09 04:40:51;;;;;;;5.12;3.52;;;;;;;;;;1713861;84;21073;-63
2022/09/09 04:43:18;;;;;;;10.50;3.85;;;;;;;;;;1713972;83;21505;-64
2022/09/09 04:45:47;;;;;;;6.65;3.37;;;;;;;;;;1714033;82;21089;-62
2022/09/09 04:48:13;;;;;;;6.47;3.25;;;;;;;;;;1677808;84;21085;-63
2022/09/09 04:50:40;;;;;;;6.15;3.60;;;;;;;;;;1698101;84;21050;-63
2022/09/09 04:53:08;;;;;;;9.33;3.62;;;;;;;;;;1702265;82;21440;-63
2022/09/09 04:55:37;;;;;;;5.95;3.42;;;;;;;;;;1706780;82;21588;-64
2022/09/09 04:58:07;;;;;;;6.40;3.42;;;;;;;;;;1711833;82;21029;-63
2022/09/09 05:00:35;;;;;;;7.17;3.92;;;;;;;;;;1713971;82;21038;-62
2022/09/09 05:03:03;;;;;;;5.47;3.45;;;;;;;;;;1712246;84;21106;-62
2022/09/09 05:05:30;;;;;;;6.87;3.55;;;;;;;;;;1713673;83;22291;-63
2022/09/09 05:08:04;;;;;;;6.50;3.10;;;;;;;;;;1714004;82;21052;-63
2022/09/09 05:10:31;;;;;;;6.75;3.35;;;;;;;;;;1713146;83;21067;-63
2022/09/09 05:12:57;;;;;;;6.40;3.85;;;;;;;;;;1712701;84;21088;-63
2022/09/09 05:15:26;;;;;;;6.35;3.30;;;;;;;;;;1713082;83;21529;-63
2022/09/09 05:17:52;;;;;;;9.75;3.50;;;;;;;;;;1704198;82;21046;-63
2022/09/09 05:20:19;;;;;;;17.25;4.67;;;;;;;;;;1708960;84;21045;-62
2022/09/09 05:22:45;;;;;;;5.40;3.47;;;;;;;;;;1713122;82;21068;-62
2022/09/09 05:25:12;;;;;;;8.20;3.37;;;;;;;;;;1701403;84;20986;-62
2022/09/09 05:27:40;;;;;;;8.08;3.80;;;;;;;;;;1710253;82;21009;-63
2022/09/09 05:30:07;;;;;;;15.08;4.40;;;;;;;;;;1714343;83;21521;-63
2022/09/09 05:32:34;;;;;;;5.35;3.05;;;;;;;;;;1711150;82;21089;-64
2022/09/09 05:35:01;;;;;;;7.00;4.35;;;;;;;;;;1713783;82;21029;-62
2022/09/09 05:37:27;;;;;;;4.33;3.08;;;;;;;;;;1703569;82;21034;-64
2022/09/09 05:39:54;;;;;;;4.70;3.02;;;;;;;;;;1703596;84;21583;-64
2022/09/09 05:42:21;;;;;;;6.53;3.30;;;;;;;;;;1713869;84;21081;-63
2022/09/09 05:44:47;;;;;;;5.25;3.47;;;;;;;;;;1713276;83;21053;-61
2022/09/09 05:47:15;;;;;;;5.17;3.20;;;;;;;;;;1706582;83;21506;-63
2022/09/09 05:49:41;;;;;;;5.45;3.12;;;;;;;;;;1710235;82;21069;-63
2022/09/09 05:52:09;;;;;;;5.28;3.22;;;;;;;;;;1719391;82;21585;-63
2022/09/09 05:54:37;;;;;;;5.22;3.37;;;;;;;;;;1719728;83;21043;-64
2022/09/09 05:57:04;;;;;;;7.05;2.90;;;;;;;;;;1719655;83;21102;-64
2022/09/09 05:59:32;;;;;;;6.83;3.15;;;;;;;;;;1719805;83;21090;-65
2022/09/09 06:01:59;;;;;;;17.07;3.60;;;;;;;;;;1719521;83;21047;-64
2022/09/09 06:04:28;;;;;;;23.80;6.95;;;;;;;;;;1719026;82;21070;-64
2022/09/09 06:06:54;;;;;;;9.98;3.42;;;;;;;;;;1719247;83;21082;-64
2022/09/09 06:09:23;;;;;;;24.32;4.70;;;;;;;;;;1719623;83;21085;-64
2022/09/09 06:11:49;;;;;;;6.80;3.33;;;;;;;;;;1716280;83;21046;-64
2022/09/09 06:14:17;;;;;;;6.35;3.12;;;;;;;;;;1711783;84;21068;-64
2022/09/09 06:16:45;;;;;;;9.30;3.40;;;;;;;;;;1711740;84;21535;-64
2022/09/09 06:19:14;;;;;;;6.08;3.27;;;;;;;;;;1711425;83;21554;-64
2022/09/09 06:21:42;;;;;;;8.25;3.98;;;;;;;;;;1711989;84;21063;-64
2022/09/09 06:24:09;;;;;;;10.78;3.15;;;;;;;;;;1711655;84;21126;-63
2022/09/09 06:26:36;;;;;;;8.05;3.02;;;;;;;;;;1711852;83;21035;-64
2022/09/09 06:29:03;;;;;;;5.92;3.40;;;;;;;;;;1711667;84;21122;-63
2022/09/09 06:31:33;;;;;;;11.00;3.33;;;;;;;;;;1711903;84;21542;-64
2022/09/09 06:34:01;;;;;;;7.15;3.17;;;;;;;;;;1711709;84;21078;-64
2022/09/09 06:36:29;;;;;;;5.55;2.95;;;;;;;;;;1711981;84;21046;-65
2022/09/09 06:38:55;;;;;;;5.05;3.55;;;;;;;;;;1711991;84;21019;-64
2022/09/09 06:41:25;;;;;;;8.30;3.17;;;;;;;;;;1712112;84;21074;-63
2022/09/09 06:43:51;;;;;;;9.28;2.98;;;;;;;;;;1711975;84;21042;-64
2022/09/09 06:46:28;;;;;;;19.27;3.55;;;;;;;;;;1711989;84;21118;-63
2022/09/09 06:48:58;;;;;;;8.05;3.00;;;;;;;;;;1707405;84;21115;-63
2022/09/09 06:51:32;;;;;;;9.23;3.50;;;;;;;;;;1711562;84;21051;-64
2022/09/09 06:53:58;;;;;;;;;;;;;;;;;;1713746;84;21659;-64
2022/09/09 06:56:29;;;;;;;6.53;2.95;;;;;;;;;;1697651;84;20450;-64
2022/09/09 06:58:56;;;;;;;6.10;2.98;;;;;;;;;;1705747;84;21119;-64
2022/09/09 07:01:25;;;;;;;9.33;3.55;;;;;;;;;;1711798;84;21082;-63
2022/09/09 07:03:54;;;;;;;4.40;3.17;;;;;;;;;;1660999;85;21107;-64
2022/09/09 07:06:23;;;;;;;8.53;3.20;;;;;;;;;;1638999;87;21069;-65
2022/09/09 07:08:52;;;;;;;4.97;2.98;;;;;;;;;;1682306;85;20999;-63
2022/09/09 07:11:18;;;;;;;5.00;2.85;;;;;;;;;;1681107;85;21098;-65
2022/09/09 07:13:45;;;;;;;13.43;4.03;;;;;;;;;;1658076;85;21105;-63
2022/09/09 07:16:12;;;;;;;10.63;3.00;;;;;;;;;;1674762;83;21087;-64
2022/09/09 07:18:39;;;;;;;8.90;3.70;;;;;;;;;;1681527;83;21057;-63
2022/09/09 07:21:06;;;;;;;12.33;3.35;;;;;;;;;;1648616;85;21566;-63
2022/09/09 07:23:33;;;;;;;5.58;3.08;;;;;;;;;;1673625;85;21100;-63
2022/09/09 07:25:59;;;;;;;6.30;3.17;;;;;;;;;;1690029;85;21055;-62
2022/09/09 07:28:27;;;;;;;9.88;3.40;;;;;;;;;;1686992;85;21051;-63
2022/09/09 07:30:57;;;;;;;4.87;2.70;;;;;;;;;;1689915;85;21036;-63
2022/09/09 07:33:25;;;;;;;9.75;3.30;;;;;;;;;;1693761;83;21001;-63
2022/09/09 07:35:51;;;;;;;21.97;12.10;;;;;;;;;;1692446;83;21067;-64
2022/09/09 07:38:19;;;;;;;16.82;6.70;;;;;;;;;;1673493;86;21031;-64
2022/09/09 07:40:46;;;;;;;8.68;3.77;;;;;;;;;;1658223;85;21025;-65
2022/09/09 07:43:12;;;;;;;7.17;2.80;;;;;;;;;;1650919;87;21059;-66
2022/09/09 07:45:40;;;;;;;11.38;3.75;;;;;;;;;;1651093;86;21554;-65
2022/09/09 07:48:07;;;;;;;40.95;4.95;;;;;;;;;;1651236;87;21067;-66
2022/09/09 07:50:33;;;;;;;5.37;2.87;;;;;;;;;;1640886;87;21599;-66
2022/09/09 07:53:02;;;;;;;4.08;2.92;;;;;;;;;;1640311;87;21120;-66
2022/09/09 07:55:29;;;;;;;5.20;2.90;;;;;;;;;;1640388;87;21052;-66
2022/09/09 07:57:55;;;;;;;8.23;3.15;;;;;;;;;;1643370;87;21028;-66
2022/09/09 08:00:23;;;;;;;6.95;2.95;;;;;;;;;;1690190;85;21591;-66
2022/09/09 08:02:51;;;;;;;6.90;3.20;;;;;;;;;;1690062;84;21532;-66
2022/09/09 08:05:18;;;;;;;5.05;2.50;;;;;;;;;;1688702;85;21156;-66
2022/09/09 08:07:45;;;;;;;8.15;2.95;;;;;;;;;;1690096;84;21107;-66
2022/09/09 08:10:14;;;;;;;7.00;2.62;;;;;;;;;;1689919;85;21056;-66
2022/09/09 08:12:41;;;;;;;5.03;2.67;;;;;;;;;;1702670;83;21060;-65
2022/09/09 08:15:08;;;;;;;4.12;2.52;;;;;;;;;;1716262;83;21473;-66
2022/09/09 08:17:34;;;;;;;5.45;2.70;;;;;;;;;;1697031;83;21092;-65
2022/09/09 08:20:06;;;;;;;4.28;2.27;;;;;;;;;;1689928;84;21099;-66
2022/09/09 08:22:31;;;;;;;6.17;2.42;;;;;;;;;;1657609;86;21018;-66
2022/09/09 08:24:57;;;;;;;3.77;2.20;;;;;;;;;;1695481;83;21065;-67
2022/09/09 08:27:25;;;;;;;3.92;2.25;;;;;;;;;;1713757;83;21554;-66
2022/09/09 08:29:53;;;;;;;2.98;2.15;;;;;;;;;;1706052;83;21515;-67
2022/09/09 08:32:19;;;;;;;5.22;2.20;;;;;;;;;;1670751;84;21070;-66
2022/09/09 08:34:45;;;;;;;8.78;2.45;;;;;;;;;;1689599;84;21026;-66
2022/09/09 08:37:14;;;;;;;3.52;2.27;;;;;;;;;;1705784;83;21037;-65
2022/09/09 08:39:41;;;;;;;3.27;2.20;;;;;;;;;;1718801;83;20968;-65
2022/09/09 08:42:09;;;;;;;2.77;1.92;;;;;;;;;;1710260;83;21033;-66
2022/09/09 08:44:42;;;;;;;4.47;2.10;;;;;;;;;;1709621;83;21032;-66
2022/09/09 08:47:10;;;;;;;5.50;2.45;;;;;;;;;;1712518;83;21065;-67
2022/09/09 08:49:39;;;;;;;2.85;1.90;;;;;;;;;;1707886;82;21045;-66
2022/09/09 08:52:11;;;;;;;3.42;1.98;;;;;;;;;;1650747;82;21578;-65
2022/09/09 08:54:39;;;;;;;3.37;2.30;;;;;;;;;;1704294;82;22281;-65
2022/09/09 08:57:07;;;;;;;6.12;4.10;;;;;;;;;;1711213;82;21021;-74
2022/09/09 08:59:35;;;;;;;52.38;35.75;;;;;;;;;;1710007;82;21069;-70
2022/09/09 09:02:07;;;;;;;46.25;31.50;;;;;;;;;;1714784;82;21002;-71
2022/09/09 09:04:47;;;;;;;14.07;2.80;;;;;;;;;;1708129;83;21065;-73
2022/09/09 09:07:19;;;;;;;6.87;2.50;;;;;;;;;;1700803;82;21017;-73
2022/09/09 09:09:53;;;;;;;3.90;2.30;;;;;;;;;;1701363;82;21120;-73
2022/09/09 09:12:20;;;;;;;6.35;2.60;;;;;;;;;;1651088;85;21626;-71
2022/09/09 09:14:47;;;;;;;9.73;2.40;;;;;;;;;;1661896;85;21034;-71
2022/09/09 09:17:15;;;;;;;7.45;2.35;;;;;;;;;;1661816;85;21028;-69
2022/09/09 09:19:41;;;;;;;4.53;2.10;;;;;;;;;;1668826;85;20984;-70
2022/09/09 09:22:31;;;;;;;4.50;2.10;;;;;;;;;;1640150;87;21006;-71
2022/09/09 09:25:11;;;;;;;5.25;2.10;;;;;;;;;;1699112;83;21053;-70
2022/09/09 09:27:41;;;;;;;6.87;2.62;;;;;;;;;;1671238;84;21543;-68
2022/09/09 09:30:19;;;;;;;5.17;1.95;;;;;;;;;;1681118;84;21027;-70
2022/09/09 09:32:47;;;;;;;5.35;2.47;;;;;;;;;;1687326;85;21049;-69
2022/09/09 09:35:14;;;;;;;3.92;1.85;;;;;;;;;;1654701;86;21114;-71
2022/09/09 09:37:43;;;;;;;3.10;1.80;;;;;;;;;;1657920;86;21052;-71
2022/09/09 09:40:10;;;;;;;6.30;2.02;;;;;;;;;;1647061;85;21723;-71
2022/09/09 09:42:53;;;;;;;4.37;1.80;;;;;;;;;;1642747;86;21146;-71
2022/09/09 09:45:37;;;;;;;8.03;2.35;;;;;;;;;;1644500;86;21010;-70
2022/09/09 09:48:05;;;;;;;2.55;1.70;;;;;;;;;;1655616;86;21014;-73
2022/09/09 09:50:32;;;;;;;3.45;2.00;;;;;;;;;;1657727;86;21033;-73
2022/09/09 09:53:00;;;;;;;4.03;2.10;;;;;;;;;;1657570;86;21030;-71
2022/09/09 09:55:29;;;;;;;3.65;1.82;;;;;;;;;;1684569;83;21118;-69
2022/09/09 09:58:03;;;;;;;18.65;2.98;;;;;;;;;;1687110;83;21035;-66
2022/09/09 10:00:29;;;;;;;5.50;2.62;;;;;;;;;;1686445;83;21133;-72
2022/09/09 10:02:59;;;;;;;5.22;2.20;;;;;;;;;;1669756;83;21051;-71
2022/09/09 10:05:28;;;;;;;5.12;2.37;;;;;;;;;;1676958;85;21011;-72
2022/09/09 10:08:02;;;;;;;5.25;2.00;;;;;;;;;;1646571;87;21051;-69
2022/09/09 10:10:36;;;;;;;7.08;2.00;;;;;;;;;;1648212;87;21055;-71
2022/09/09 10:13:04;;;;;;;2.55;1.98;;;;;;;;;;1671235;85;21083;-72
2022/09/09 10:15:34;;;;;;;4.15;2.02;;;;;;;;;;1656005;86;21546;-71
2022/09/09 10:18:17;;;;;;;14.53;2.40;;;;;;;;;;1716158;83;21532;-66
2022/09/09 10:21:02;;;;;;;6.47;1.70;;;;;;;;;;1716345;83;21497;-72
2022/09/09 10:23:30;;;;;;;9.38;2.20;;;;;;;;;;1704886;83;21548;-67
2022/09/09 10:26:01;;;;;;;4.12;1.90;;;;;;;;;;1703695;83;21378;-67
2022/09/09 10:28:32;;;;;;;5.10;2.15;;;;;;;;;;1713189;83;21098;-68
2022/09/09 10:31:03;;;;;;;3.62;1.62;;;;;;;;;;1711432;83;21535;-68
2022/09/09 10:33:35;;;;;;;4.03;2.37;;;;;;;;;;1716035;83;21032;-68
2022/09/09 10:36:17;;;;;;;3.20;2.00;;;;;;;;;;1714430;83;21108;-69
2022/09/09 10:38:47;;;;;;;2.50;1.87;;;;;;;;;;1713893;83;21038;-67
2022/09/09 10:41:20;;;;;;;4.17;2.30;;;;;;;;;;1715156;83;21065;-66
2022/09/09 10:43:55;;;;;;;5.87;1.90;;;;;;;;;;1714386;83;21524;-67
2022/09/09 10:46:23;;;;;;;4.83;2.20;;;;;;;;;;1714152;83;21018;-66
2022/09/09 10:49:00;;;;;;;2.70;1.70;;;;;;;;;;1712588;83;21083;-67
2022/09/09 10:51:40;;;;;;;3.52;1.82;;;;;;;;;;1712396;83;21043;-66
2022/09/09 10:54:11;;;;;;;3.37;1.85;;;;;;;;;;1700780;83;21138;-68
2022/09/09 10:56:39;;;;;;;6.37;2.00;;;;;;;;;;1709830;83;21009;-69
2022/09/09 10:59:07;;;;;;;7.67;2.05;;;;;;;;;;1705040;83;21041;-68
2022/09/09 11:01:35;;;;;;;3.92;2.02;;;;;;;;;;1709373;83;21350;-68
2022/09/09 11:04:03;;;;;;;5.00;1.82;;;;;;;;;;1709724;82;21144;-68
2022/09/09 11:06:34;;;;;;;3.52;1.92;;;;;;;;;;1715110;83;21029;-68
2022/09/09 11:09:01;;;;;;;8.75;2.37;;;;;;;;;;1713276;83;21026;-67
2022/09/09 11:11:29;;;;;;;2.80;2.00;;;;;;;;;;1709284;83;21099;-68
2022/09/09 11:13:58;;;;;;;3.47;1.87;;;;;;;;;;1717830;83;21061;-68
2022/09/09 11:16:30;;;;;;;5.58;1.67;;;;;;;;;;1674383;85;21072;-67
2022/09/09 11:19:02;;;;;;;7.37;2.25;;;;;;;;;;1671078;85;21020;-66
2022/09/09 11:21:33;;;;;;;4.55;1.87;;;;;;;;;;1653934;86;21046;-66
2022/09/09 11:24:04;;;;;;;4.28;2.10;;;;;;;;;;1645438;86;21060;-67
2022/09/09 11:26:39;;;;;;;4.23;1.97;;;;;;;;;;1656244;86;21568;-66
2022/09/09 11:29:09;;;;;;;4.53;1.70;;;;;;;;;;1650272;86;21077;-67
2022/09/09 11:31:41;;;;;;;8.70;2.33;;;;;;;;;;1660069;86;21065;-68
2022/09/09 11:34:27;;;;;;;2.60;1.75;;;;;;;;;;1653889;86;21063;-67
2022/09/09 11:37:00;;;;;;;5.12;2.08;;;;;;;;;;1655436;86;21047;-67
2022/09/09 11:39:31;;;;;;;2.55;1.70;;;;;;;;;;1658442;86;21071;-67
2022/09/09 11:42:14;;;;;;;4.10;2.20;;;;;;;;;;1658473;86;21047;-70
2022/09/09 11:44:41;;;;;;;3.45;2.27;;;;;;;;;;1658537;86;21027;-68
2022/09/09 11:47:21;;;;;;;5.12;1.80;;;;;;;;;;1658356;86;21149;-68
2022/09/09 11:49:48;;;;;;;19.12;2.70;;;;;;;;;;1627412;88;21085;-68
2022/09/09 11:52:33;;;;;;;3.77;1.87;;;;;;;;;;1627580;88;21038;-68
2022/09/09 11:54:59;;;;;;;2.55;1.70;;;;;;;;;;1635921;87;21051;-64
2022/09/09 11:57:26;;;;;;;11.22;2.77;;;;;;;;;;1627704;87;21043;-65
2022/09/09 11:59:52;;;;;;;5.15;1.85;;;;;;;;;;1654607;87;21055;-65
2022/09/09 12:02:23;;;;;;;8.53;2.00;;;;;;;;;;1654099;86;21162;-64
2022/09/09 12:04:57;;;;;;;5.65;1.95;;;;;;;;;;1654225;87;21095;-65
2022/09/09 12:07:29;;;;;;;2.95;1.62;;;;;;;;;;1669800;85;21115;-64
2022/09/09 12:09:57;;;;;;;3.10;1.72;;;;;;;;;;1651875;87;21102;-65
2022/09/09 12:12:25;;;;;;;3.65;1.90;;;;;;;;;;1677144;85;21772;-64
2022/09/09 12:14:56;;;;;;;7.70;2.27;;;;;;;;;;1653042;86;21018;-64
2022/09/09 12:17:23;;;;;;;6.30;2.20;;;;;;;;;;1715956;82;21571;-65
2022/09/09 12:19:51;;;;;;;6.75;2.27;;;;;;;;;;1707539;83;21075;-64
2022/09/09 12:22:25;;;;;;;2.67;1.67;;;;;;;;;;1735699;82;21084;-64
2022/09/09 12:24:56;;;;;;;8.80;2.10;;;;;;;;;;1710632;84;21045;-63
2022/09/09 12:27:33;;;;;;;4.25;1.80;;;;;;;;;;1698010;83;21598;-63
2022/09/09 12:30:04;;;;;;;4.12;1.72;;;;;;;;;;1701976;83;21039;-63
2022/09/09 12:32:30;;;;;;;3.35;1.92;;;;;;;;;;1704665;83;21159;-62
2022/09/09 12:35:03;;;;;;;3.62;1.98;;;;;;;;;;1707928;83;21083;-63
2022/09/09 12:37:37;;;;;;;4.33;2.35;;;;;;;;;;1693478;83;20999;-64
2022/09/09 12:40:08;;;;;;;2.37;1.80;;;;;;;;;;1713408;83;21098;-63
2022/09/09 12:42:36;;;;;;;2.47;1.80;;;;;;;;;;1690544;83;21116;-65
2022/09/09 12:45:03;;;;;;;14.13;10.23;;;;;;;;;;1715718;83;21571;-62
2022/09/09 12:47:46;;;;;;;26.73;16.02;;;;;;;;;;1697846;83;20994;-62
2022/09/09 12:50:16;;;;;;;22.93;12.85;;;;;;;;;;1705466;83;20978;-62
2022/09/09 12:52:42;;;;;;;13.28;4.35;;;;;;;;;;1713299;82;21092;-65
2022/09/09 12:55:10;;;;;;;4.03;1.80;;;;;;;;;;1714140;82;21061;-64
2022/09/09 12:57:37;;;;;;;4.25;1.70;;;;;;;;;;1653779;86;21098;-64
2022/09/09 13:00:05;;;;;;;6.37;1.92;;;;;;;;;;1660160;85;21055;-64
2022/09/09 13:02:32;;;;;;;7.03;1.87;;;;;;;;;;1678761;83;21075;-64
2022/09/09 13:05:00;;;;;;;6.58;2.12;;;;;;;;;;1647928;86;21077;-63
2022/09/09 13:07:26;;;;;;;4.72;1.98;;;;;;;;;;1707074;83;21018;-63
2022/09/09 13:09:52;;;;;;;4.12;2.00;;;;;;;;;;1706953;83;21108;-64
2022/09/09 13:12:19;;;;;;;4.87;2.00;;;;;;;;;;1707210;83;21095;-65
2022/09/09 13:14:47;;;;;;;4.17;2.20;;;;;;;;;;1704958;83;21053;-66
2022/09/09 13:17:27;;;;;;;3.67;1.92;;;;;;;;;;1708009;83;21559;-63
2022/09/09 13:19:53;;;;;;;6.17;2.20;;;;;;;;;;1710910;82;21033;-64
2022/09/09 13:22:24;;;;;;;5.80;2.45;;;;;;;;;;1699308;83;21111;-64
2022/09/09 13:25:07;;;;;;;5.17;2.27;;;;;;;;;;1702573;82;21020;-64
2022/09/09 13:27:38;;;;;;;5.95;2.10;;;;;;;;;;1700123;83;21144;-65
2022/09/09 13:30:05;;;;;;;5.10;2.17;;;;;;;;;;1698259;83;21073;-66
2022/09/09 13:32:31;;;;;;;4.30;2.15;;;;;;;;;;1689911;83;21104;-65
2022/09/09 13:34:58;;;;;;;4.92;2.35;;;;;;;;;;1710020;82;21058;-64
2022/09/09 13:37:32;;;;;;;5.42;2.20;;;;;;;;;;1699945;83;21053;-65
2022/09/09 13:39:59;;;;;;;3.00;2.10;;;;;;;;;;1716092;83;21056;-66
2022/09/09 13:42:27;;;;;;;8.28;5.05;;;;;;;;;;1714683;82;21119;-66
2022/09/09 13:44:53;;;;;;;10.90;2.90;;;;;;;;;;1713536;82;21071;-65
2022/09/09 13:47:20;;;;;;;10.75;2.55;;;;;;;;;;1708684;83;21025;-64
2022/09/09 13:49:46;;;;;;;9.45;2.17;;;;;;;;;;1677843;84;21569;-64
2022/09/09 13:52:14;;;;;;;20.57;3.62;;;;;;;;;;1673934;83;21104;-65
2022/09/09 13:54:40;;;;;;;5.15;2.42;;;;;;;;;;1703726;82;21513;-64
2022/09/09 13:59:12;;;;;;;4.70;2.10;;;;;;;;;;1810760;78;22939;-66
2022/09/09 14:01:39;;;;;;;9.25;2.02;;;;;;;;;;1791365;80;21075;-65
2022/09/09 14:04:06;;;;;;;7.55;2.30;;;;;;;;;;1790252;80;21043;-66
2022/09/09 14:06:37;;;;;;;13.22;2.52;;;;;;;;;;1771132;80;21046;-66
2022/09/09 14:09:01;;;;;;;3.60;1.90;;;;;;;;;;1731788;81;21035;-66
2022/09/09 14:11:27;;;;;;;5.05;2.00;;;;;;;;;;1768364;80;21008;-65
2022/09/09 14:13:53;;;;;;;5.67;2.30;;;;;;;;;;1790261;80;21008;-65
2022/09/09 14:16:20;;;;;;;6.30;2.02;;;;;;;;;;1789238;80;21080;-63
2022/09/09 14:18:46;;;;;;;5.85;2.60;;;;;;;;;;1779038;80;21047;-65
2022/09/09 14:21:12;;;;;;;3.80;2.12;;;;;;;;;;1785121;80;21055;-66
2022/09/09 14:23:38;;;;;;;5.67;2.30;;;;;;;;;;1781146;80;21024;-66
2022/09/09 14:26:05;;;;;;;8.33;2.50;;;;;;;;;;1788144;79;21538;-64
2022/09/09 14:28:33;;;;;;;3.33;2.05;;;;;;;;;;1777586;80;21012;-64
2022/09/09 14:31:00;;;;;;;4.60;2.02;;;;;;;;;;1787403;80;21055;-65
2022/09/09 14:33:28;;;;;;;7.72;2.10;;;;;;;;;;1783245;80;21487;-65
2022/09/09 14:35:59;;;;;;;5.20;2.10;;;;;;;;;;1765357;80;21031;-65
2022/09/09 14:38:25;;;;;;;10.00;2.37;;;;;;;;;;1769198;80;21055;-63
2022/09/09 14:40:51;;;;;;;7.53;2.47;;;;;;;;;;1779971;80;21525;-64
2022/09/09 14:43:18;;;;;;;7.45;2.50;;;;;;;;;;1783872;80;21027;-64
2022/09/09 14:45:44;;;;;;;4.37;2.10;;;;;;;;;;1772729;80;21000;-64
2022/09/09 14:48:10;;;;;;;6.75;2.70;;;;;;;;;;1785800;80;21007;-64
2022/09/09 14:50:39;;;;;;;7.40;2.42;;;;;;;;;;1787454;80;21035;-64
2022/09/09 14:53:05;;;;;;;8.58;2.65;;;;;;;;;;1773298;80;21090;-64
2022/09/09 14:55:33;;;;;;;6.17;2.70;;;;;;;;;;1778212;80;21795;-64
2022/09/09 14:57:59;;;;;;;7.25;2.25;;;;;;;;;;1766406;80;21048;-64
2022/09/09 15:00:25;;;;;;;7.40;2.77;;;;;;;;;;1755672;81;21083;-65
2022/09/09 15:02:54;;;;;;;8.73;3.58;;;;;;;;;;1760249;81;21014;-65